Time;durP1;ratioP1;P1;durP2;ratioP2;P2;SDS_P1;SDS_P2;PMS_P1;PMS_P2;Temp;Humidity;BMP_temperature;BMP_pressure;BME280_temperature;BME280_humidity;BME280_pressure;Samples;Min_cycle;Max_cycle;Signal;HPM_P1;HPM_P2
2024/01/27 00:01:39;;;;;;;0.00;0.00;;;2.30;99.90;;;;;;5090992;28;20188;-66
2024/01/27 00:04:04;;;;;;;0.00;0.00;;;2.30;99.90;;;;;;5090948;28;20214;-65
2024/01/27 00:06:30;;;;;;;0.00;0.00;;;2.30;99.90;;;;;;5091157;28;20176;-66
2024/01/27 00:08:55;;;;;;;0.00;0.00;;;2.30;99.90;;;;;;5092161;28;20234;-66
2024/01/27 00:11:23;;;;;;;0.00;0.00;;;2.20;99.90;;;;;;5092124;28;20211;-66
2024/01/27 00:13:48;;;;;;;0.00;0.00;;;2.20;99.90;;;;;;5092303;28;20176;-66
2024/01/27 00:16:14;;;;;;;0.00;0.00;;;2.20;99.90;;;;;;5090899;28;20179;-66
2024/01/27 00:18:40;;;;;;;0.00;0.00;;;2.20;99.90;;;;;;5090757;28;20191;-66
2024/01/27 00:21:06;;;;;;;0.10;0.10;;;2.10;99.90;;;;;;5092095;28;20187;-66
2024/01/27 00:23:34;;;;;;;0.00;0.00;;;2.10;99.90;;;;;;5092045;28;20761;-65
2024/01/27 00:26:03;;;;;;;0.00;0.00;;;2.10;99.90;;;;;;5092118;28;20191;-66
2024/01/27 00:28:29;;;;;;;0.10;0.10;;;2.10;99.90;;;;;;5091865;28;20191;-65
2024/01/27 00:30:55;;;;;;;0.22;0.22;;;2.10;99.90;;;;;;5091791;28;20547;-67
2024/01/27 00:33:22;;;;;;;0.00;0.00;;;2.00;99.90;;;;;;5091720;28;20552;-66
2024/01/27 00:35:47;;;;;;;0.00;0.00;;;2.00;99.90;;;;;;5091686;28;20188;-66
2024/01/27 00:38:13;;;;;;;0.00;0.00;;;2.00;99.90;;;;;;5091865;28;20179;-66
2024/01/27 00:40:38;;;;;;;0.00;0.00;;;2.00;99.90;;;;;;5091054;28;20293;-66
2024/01/27 00:43:04;;;;;;;0.00;0.00;;;1.90;99.90;;;;;;5090381;28;20674;-66
2024/01/27 00:45:30;;;;;;;0.00;0.00;;;1.90;99.90;;;;;;5091793;28;20208;-65
2024/01/27 00:47:56;;;;;;;0.00;0.00;;;1.90;99.90;;;;;;5091525;28;20254;-65
2024/01/27 00:50:22;;;;;;;0.00;0.00;;;1.90;99.90;;;;;;5091520;28;20215;-65
2024/01/27 00:52:47;;;;;;;0.00;0.00;;;1.90;99.90;;;;;;5091252;28;20180;-65
2024/01/27 00:55:13;;;;;;;0.00;0.00;;;1.90;99.90;;;;;;5091305;28;20784;-65
2024/01/27 00:57:38;;;;;;;0.00;0.00;;;1.80;99.90;;;;;;5093871;28;20188;-65
2024/01/27 01:00:08;;;;;;;0.10;0.10;;;1.80;99.90;;;;;;5093249;28;20176;-65
2024/01/27 01:02:34;;;;;;;0.00;0.00;;;1.80;99.90;;;;;;5093550;28;20210;-66
2024/01/27 01:05:00;;;;;;;0.00;0.00;;;1.70;99.90;;;;;;5091537;28;20211;-65
2024/01/27 01:07:25;;;;;;;0.00;0.00;;;1.70;99.90;;;;;;5093413;28;20656;-65
2024/01/27 01:09:51;;;;;;;0.00;0.00;;;1.70;99.90;;;;;;5091410;28;20200;-66
2024/01/27 01:12:16;;;;;;;0.00;0.00;;;1.60;99.90;;;;;;5091006;28;20195;-66
2024/01/27 01:14:43;;;;;;;0.00;0.00;;;1.60;99.90;;;;;;5093060;28;20203;-65
2024/01/27 01:17:09;;;;;;;0.00;0.00;;;1.60;99.90;;;;;;5093145;28;20189;-65
2024/01/27 01:19:34;;;;;;;0.00;0.00;;;1.60;99.90;;;;;;5092903;28;20176;-65
2024/01/27 01:22:00;;;;;;;0.00;0.00;;;1.50;99.90;;;;;;5091346;28;20532;-65
2024/01/27 01:24:25;;;;;;;0.10;0.10;;;1.50;99.90;;;;;;5091950;28;20168;-65
2024/01/27 01:26:50;;;;;;;0.00;0.00;;;1.50;99.90;;;;;;5091537;28;20188;-65
2024/01/27 01:29:16;;;;;;;0.00;0.00;;;1.50;99.90;;;;;;5091032;28;20179;-65
2024/01/27 01:31:44;;;;;;;0.00;0.00;;;1.50;99.90;;;;;;5091242;28;20303;-65
2024/01/27 01:34:10;;;;;;;0.00;0.00;;;1.50;99.90;;;;;;5091183;28;20176;-65
2024/01/27 01:36:36;;;;;;;0.00;0.00;;;1.40;99.90;;;;;;5091004;28;20215;-65
2024/01/27 01:39:02;;;;;;;0.00;0.00;;;1.40;99.90;;;;;;5090828;28;20212;-65
2024/01/27 01:41:27;;;;;;;0.00;0.00;;;1.40;99.90;;;;;;5090892;28;20275;-65
2024/01/27 01:43:53;;;;;;;0.00;0.00;;;1.30;99.90;;;;;;5090935;28;20229;-66
2024/01/27 01:46:18;;;;;;;0.10;0.10;;;1.30;99.90;;;;;;5090963;28;20214;-66
2024/01/27 01:48:44;;;;;;;0.00;0.00;;;1.30;99.90;;;;;;5090568;28;20652;-66
2024/01/27 01:51:11;;;;;;;0.00;0.00;;;1.30;99.90;;;;;;5074643;28;20219;-66
2024/01/27 01:53:36;;;;;;;0.00;0.00;;;1.30;99.90;;;;;;5091041;28;20582;-66
2024/01/27 01:56:04;;;;;;;0.00;0.00;;;1.30;99.90;;;;;;5089463;28;20179;-65
2024/01/27 01:58:33;;;;;;;0.05;0.05;;;1.40;99.90;;;;;;5090106;28;20168;-66
2024/01/27 02:01:02;;;;;;;0.00;0.00;;;1.30;99.90;;;;;;5089149;28;20203;-66
2024/01/27 02:03:28;;;;;;;0.00;0.00;;;1.30;99.90;;;;;;5081740;28;20683;-65
2024/01/27 02:05:55;;;;;;;0.00;0.00;;;1.30;99.90;;;;;;5090725;28;20208;-65
2024/01/27 02:08:21;;;;;;;0.10;0.10;;;1.30;99.90;;;;;;5090706;28;20172;-65
2024/01/27 02:10:46;;;;;;;0.00;0.00;;;1.30;99.90;;;;;;5090301;28;20261;-65
2024/01/27 02:13:20;;;;;;;0.00;0.00;;;1.30;99.90;;;;;;5090195;28;20180;-66
2024/01/27 02:15:46;;;;;;;0.00;0.00;;;1.30;99.90;;;;;;5090371;28;20180;-66
2024/01/27 02:18:12;;;;;;;0.28;0.28;;;1.20;99.90;;;;;;5090494;28;20180;-65
2024/01/27 02:20:38;;;;;;;0.00;0.00;;;1.20;99.90;;;;;;5090264;28;20718;-65
2024/01/27 02:23:04;;;;;;;0.00;0.00;;;1.20;99.90;;;;;;5090400;28;20177;-66
2024/01/27 02:25:31;;;;;;;0.00;0.00;;;1.10;99.90;;;;;;5091677;28;20510;-66
2024/01/27 02:27:56;;;;;;;0.00;0.00;;;1.10;99.90;;;;;;5094338;28;20211;-67
2024/01/27 02:30:22;;;;;;;0.00;0.00;;;1.10;99.90;;;;;;5093876;28;20243;-67
2024/01/27 02:32:47;;;;;;;0.10;0.10;;;1.10;99.90;;;;;;5093981;28;20191;-66
2024/01/27 02:35:14;;;;;;;0.00;0.00;;;1.10;99.90;;;;;;5094260;28;20183;-66
2024/01/27 02:37:40;;;;;;;0.00;0.00;;;1.10;99.90;;;;;;5094021;28;20673;-66
2024/01/27 02:40:09;;;;;;;0.00;0.00;;;1.10;99.90;;;;;;5093835;28;20249;-66
2024/01/27 02:42:35;;;;;;;0.00;0.00;;;1.10;99.90;;;;;;5093787;28;20559;-66
2024/01/27 02:45:00;;;;;;;0.00;0.00;;;1.00;99.90;;;;;;5094345;28;20184;-66
2024/01/27 02:47:26;;;;;;;0.00;0.00;;;1.00;99.90;;;;;;5093969;28;20168;-66
2024/01/27 02:49:51;;;;;;;0.00;0.00;;;1.00;99.90;;;;;;5094169;28;20188;-66
2024/01/27 02:52:17;;;;;;;0.20;0.10;;;1.00;99.90;;;;;;5094044;28;20188;-66
2024/01/27 02:54:42;;;;;;;0.00;0.00;;;1.00;99.90;;;;;;5093962;28;20208;-66
2024/01/27 02:57:08;;;;;;;0.00;0.00;;;1.00;99.90;;;;;;5093672;28;20545;-66
2024/01/27 02:59:33;;;;;;;0.00;0.00;;;1.00;99.90;;;;;;5093673;28;20184;-66
2024/01/27 03:01:59;;;;;;;0.00;0.00;;;1.00;99.90;;;;;;5093935;28;20180;-66
2024/01/27 03:04:24;;;;;;;0.00;0.00;;;0.90;99.90;;;;;;5093813;28;20222;-66
2024/01/27 03:06:50;;;;;;;0.00;0.00;;;0.90;99.90;;;;;;5093902;28;20684;-66
2024/01/27 03:09:15;;;;;;;0.00;0.00;;;0.90;99.90;;;;;;5093585;28;20701;-66
2024/01/27 03:11:41;;;;;;;0.00;0.00;;;0.90;99.90;;;;;;5093184;28;20220;-66
2024/01/27 03:14:06;;;;;;;0.00;0.00;;;0.80;99.90;;;;;;5093516;28;20208;-66
2024/01/27 03:16:32;;;;;;;0.00;0.00;;;0.80;99.90;;;;;;5092412;28;20202;-66
2024/01/27 03:18:58;;;;;;;0.10;0.10;;;0.80;99.90;;;;;;5093779;28;20176;-66
2024/01/27 03:21:23;;;;;;;0.00;0.00;;;0.80;99.90;;;;;;5093161;28;20188;-65
2024/01/27 03:23:49;;;;;;;0.00;0.00;;;0.80;99.90;;;;;;5093069;28;20180;-66
2024/01/27 03:26:14;;;;;;;0.00;0.00;;;0.80;99.90;;;;;;5093195;28;20542;-66
2024/01/27 03:28:40;;;;;;;0.55;0.55;;;0.80;99.90;;;;;;5092387;28;20257;-65
2024/01/27 03:31:06;;;;;;;0.00;0.00;;;0.80;99.90;;;;;;5124499;27;20216;-66
2024/01/27 03:33:31;;;;;;;0.52;0.52;;;0.70;99.90;;;;;;5091840;28;20172;-65
2024/01/27 03:35:57;;;;;;;0.00;0.00;;;0.70;99.90;;;;;;5093074;28;20192;-66
2024/01/27 03:38:23;;;;;;;0.30;0.30;;;0.80;99.90;;;;;;5093382;28;20164;-66
2024/01/27 03:40:48;;;;;;;0.00;0.00;;;0.70;99.90;;;;;;5093142;28;20266;-66
2024/01/27 03:43:14;;;;;;;0.00;0.00;;;0.70;99.90;;;;;;5093386;28;20198;-66
2024/01/27 03:45:39;;;;;;;0.00;0.00;;;0.70;99.90;;;;;;5093752;28;20188;-66
2024/01/27 03:48:05;;;;;;;0.00;0.00;;;0.60;99.90;;;;;;5093315;28;20222;-65
2024/01/27 03:50:31;;;;;;;0.00;0.00;;;0.60;99.90;;;;;;5093146;28;20199;-65
2024/01/27 03:52:56;;;;;;;0.00;0.00;;;0.60;99.90;;;;;;5092879;28;20199;-66
2024/01/27 03:55:22;;;;;;;0.00;0.00;;;0.60;99.90;;;;;;5091939;28;20184;-63
2024/01/27 03:57:47;;;;;;;0.00;0.00;;;0.60;99.90;;;;;;5092953;28;20210;-64
2024/01/27 04:00:13;;;;;;;0.00;0.00;;;0.60;99.90;;;;;;5093015;28;20706;-65
2024/01/27 04:02:39;;;;;;;0.00;0.00;;;0.60;99.90;;;;;;5093331;28;20172;-62
2024/01/27 04:05:05;;;;;;;0.10;0.10;;;0.60;99.90;;;;;;5092623;28;20264;-66
2024/01/27 04:07:31;;;;;;;0.00;0.00;;;0.60;99.90;;;;;;5092993;28;20503;-60
2024/01/27 04:09:56;;;;;;;0.00;0.00;;;0.60;99.90;;;;;;5093181;28;20670;-64
2024/01/27 04:12:22;;;;;;;0.00;0.00;;;0.60;99.90;;;;;;5092639;28;20204;-64
2024/01/27 04:14:48;;;;;;;0.00;0.00;;;0.50;99.90;;;;;;5092972;28;20233;-63
2024/01/27 04:17:13;;;;;;;0.00;0.00;;;0.60;99.90;;;;;;5091910;28;20187;-63
2024/01/27 04:19:38;;;;;;;0.00;0.00;;;0.50;99.90;;;;;;5092353;28;20535;-64
2024/01/27 04:22:04;;;;;;;0.00;0.00;;;0.50;99.90;;;;;;5092090;28;20196;-63
2024/01/27 04:24:29;;;;;;;0.00;0.00;;;0.50;99.90;;;;;;5092644;28;20176;-63
2024/01/27 04:26:55;;;;;;;0.00;0.00;;;0.50;99.90;;;;;;5092544;28;20663;-63
2024/01/27 04:29:20;;;;;;;0.00;0.00;;;0.50;99.90;;;;;;5092703;28;20168;-63
2024/01/27 04:31:46;;;;;;;0.00;0.00;;;0.50;99.90;;;;;;5092207;28;20602;-63
2024/01/27 04:34:11;;;;;;;0.00;0.00;;;0.50;99.90;;;;;;5092625;28;20168;-63
2024/01/27 04:36:37;;;;;;;0.00;0.00;;;0.50;99.90;;;;;;5092561;28;20199;-63
2024/01/27 04:39:04;;;;;;;0.00;0.00;;;0.50;99.90;;;;;;5092108;28;20212;-63
2024/01/27 04:41:29;;;;;;;0.00;0.00;;;0.40;99.90;;;;;;5092388;28;20188;-63
2024/01/27 04:43:56;;;;;;;0.00;0.00;;;0.40;99.90;;;;;;5092232;28;20187;-63
2024/01/27 04:46:22;;;;;;;0.00;0.00;;;0.40;99.90;;;;;;5092352;28;20644;-63
2024/01/27 04:48:48;;;;;;;0.00;0.00;;;0.40;99.90;;;;;;5091251;28;20202;-63
2024/01/27 04:51:13;;;;;;;0.00;0.00;;;0.40;99.90;;;;;;5092402;28;20219;-63
2024/01/27 04:53:39;;;;;;;0.00;0.00;;;0.40;99.90;;;;;;5091811;28;20226;-63
2024/01/27 04:56:07;;;;;;;0.00;0.00;;;0.40;99.90;;;;;;5091652;28;20191;-63
2024/01/27 04:58:34;;;;;;;0.00;0.00;;;0.40;99.90;;;;;;5091674;28;20184;-63
2024/01/27 05:01:00;;;;;;;0.00;0.00;;;0.40;99.90;;;;;;5091579;28;20196;-62
2024/01/27 05:03:25;;;;;;;0.00;0.00;;;0.30;99.90;;;;;;5091750;28;20179;-62
2024/01/27 05:05:52;;;;;;;0.00;0.00;;;0.30;99.90;;;;;;5091978;28;20183;-62
2024/01/27 05:08:19;;;;;;;0.00;0.00;;;0.30;99.90;;;;;;5092075;28;20210;-62
2024/01/27 05:10:44;;;;;;;0.00;0.00;;;0.30;99.90;;;;;;5091559;28;20607;-62
2024/01/27 05:13:10;;;;;;;0.00;0.00;;;0.20;99.90;;;;;;5092015;28;20184;-62
2024/01/27 05:15:35;;;;;;;0.00;0.00;;;0.30;99.90;;;;;;5091835;28;20643;-62
2024/01/27 05:18:01;;;;;;;0.00;0.00;;;0.20;99.90;;;;;;5091788;28;20278;-62
2024/01/27 05:20:26;;;;;;;0.00;0.00;;;0.10;99.90;;;;;;5091659;28;20336;-62
2024/01/27 05:22:52;;;;;;;0.00;0.00;;;0.10;99.90;;;;;;5091816;28;20643;-62
2024/01/27 05:25:17;;;;;;;0.00;0.00;;;0.10;99.90;;;;;;5091414;28;20253;-63
2024/01/27 05:27:43;;;;;;;0.00;0.00;;;0.10;99.90;;;;;;5091310;28;20192;-63
2024/01/27 05:30:09;;;;;;;0.00;0.00;;;0.10;99.90;;;;;;5091239;28;20238;-62
2024/01/27 05:32:34;;;;;;;0.00;0.00;;;0.10;99.90;;;;;;5091520;28;20811;-62
2024/01/27 05:35:00;;;;;;;0.13;0.07;;;0.10;99.90;;;;;;5091693;28;20655;-62
2024/01/27 05:37:25;;;;;;;0.00;0.00;;;0.00;99.90;;;;;;5091382;28;20175;-62
2024/01/27 05:39:51;;;;;;;0.00;0.00;;;0.00;99.90;;;;;;5091088;28;20224;-62
2024/01/27 05:42:17;;;;;;;0.00;0.00;;;0.00;99.90;;;;;;5091340;28;20191;-62
2024/01/27 05:44:42;;;;;;;0.00;0.00;;;0.00;99.90;;;;;;5089432;28;20192;-62
2024/01/27 05:47:10;;;;;;;0.00;0.00;;;0.00;99.90;;;;;;5091106;28;20267;-62
2024/01/27 05:49:36;;;;;;;0.00;0.00;;;-0.10;99.90;;;;;;5091478;28;20183;-62
2024/01/27 05:52:02;;;;;;;0.00;0.00;;;-0.10;99.90;;;;;;5091273;28;20224;-62
2024/01/27 05:54:28;;;;;;;0.00;0.00;;;-0.10;99.90;;;;;;5091452;28;20204;-62
2024/01/27 05:56:53;;;;;;;0.00;0.00;;;-0.10;99.90;;;;;;5091169;28;20184;-62
2024/01/27 05:59:19;;;;;;;0.00;0.00;;;-0.10;99.90;;;;;;5093341;28;20176;-62
2024/01/27 06:01:44;;;;;;;0.00;0.00;;;-0.10;99.90;;;;;;5093988;28;20241;-62
2024/01/27 06:04:12;;;;;;;0.00;0.00;;;-0.10;99.90;;;;;;5095441;28;20199;-61
2024/01/27 06:06:39;;;;;;;0.00;0.00;;;-0.10;99.90;;;;;;5094085;28;20225;-61
2024/01/27 06:09:04;;;;;;;0.03;0.03;;;-0.20;99.90;;;;;;5095100;28;20188;-62
2024/01/27 06:11:30;;;;;;;0.00;0.00;;;-0.20;99.90;;;;;;5095167;28;20693;-62
2024/01/27 06:13:56;;;;;;;0.00;0.00;;;-0.10;99.90;;;;;;5094126;28;20229;-63
2024/01/27 06:16:23;;;;;;;0.20;0.20;;;-0.10;99.90;;;;;;5095198;28;20230;-63
2024/01/27 06:18:48;;;;;;;0.00;0.00;;;-0.10;99.90;;;;;;5094017;28;20186;-63
2024/01/27 06:21:14;;;;;;;0.00;0.00;;;-0.10;99.90;;;;;;5094704;28;20532;-62
2024/01/27 06:23:39;;;;;;;0.00;0.00;;;-0.10;99.90;;;;;;5094972;28;20233;-63
2024/01/27 06:26:09;;;;;;;0.10;0.10;;;-0.20;99.90;;;;;;5094893;28;20167;-62
2024/01/27 06:28:36;;;;;;;0.00;0.00;;;-0.10;99.90;;;;;;5094930;28;20231;-62
2024/01/27 06:31:03;;;;;;;0.00;0.00;;;-0.10;99.90;;;;;;5094858;28;20674;-63
2024/01/27 06:33:28;;;;;;;0.17;0.17;;;-0.20;99.90;;;;;;5094781;28;20632;-62
2024/01/27 06:35:54;;;;;;;0.00;0.00;;;-0.20;99.90;;;;;;5094750;28;20263;-62
2024/01/27 06:38:19;;;;;;;0.00;0.00;;;-0.20;99.90;;;;;;5094892;28;20210;-62
2024/01/27 06:40:45;;;;;;;0.00;0.00;;;-0.20;99.90;;;;;;5094126;28;20256;-62
2024/01/27 06:43:13;;;;;;;0.00;0.00;;;-0.20;99.90;;;;;;5094598;28;20176;-63
2024/01/27 06:45:39;;;;;;;0.10;0.10;;;-0.20;99.90;;;;;;5094442;28;20538;-63
2024/01/27 06:48:06;;;;;;;0.00;0.00;;;-0.20;99.90;;;;;;5093271;28;20179;-63
2024/01/27 06:50:32;;;;;;;0.00;0.00;;;-0.20;99.90;;;;;;5094147;28;20196;-63
2024/01/27 06:52:58;;;;;;;0.00;0.00;;;-0.30;99.90;;;;;;5094672;28;20173;-63
2024/01/27 06:55:23;;;;;;;0.00;0.00;;;-0.30;99.90;;;;;;5094381;28;20241;-63
2024/01/27 06:57:49;;;;;;;0.00;0.00;;;-0.30;99.90;;;;;;5093971;28;20525;-63
2024/01/27 07:00:15;;;;;;;0.00;0.00;;;-0.30;99.90;;;;;;5093328;28;20254;-62
2024/01/27 07:02:43;;;;;;;0.00;0.00;;;-0.30;99.90;;;;;;5093569;28;20183;-63
2024/01/27 07:05:09;;;;;;;0.00;0.00;;;-0.30;99.90;;;;;;5094371;28;20184;-62
2024/01/27 07:07:35;;;;;;;0.00;0.00;;;-0.30;99.90;;;;;;5093862;28;20195;-63
2024/01/27 07:10:01;;;;;;;0.00;0.00;;;-0.30;99.90;;;;;;5093553;28;20172;-62
2024/01/27 07:12:27;;;;;;;0.00;0.00;;;-0.30;99.90;;;;;;5093664;28;20184;-62
2024/01/27 07:14:54;;;;;;;0.10;0.10;;;-0.30;99.90;;;;;;5094339;28;20694;-62
2024/01/27 07:17:20;;;;;;;0.00;0.00;;;-0.30;99.90;;;;;;5094550;28;20192;-62
2024/01/27 07:19:46;;;;;;;0.00;0.00;;;-0.30;99.90;;;;;;5094491;28;20187;-61
2024/01/27 07:22:11;;;;;;;0.00;0.00;;;-0.30;99.90;;;;;;5095558;28;20172;-62
2024/01/27 07:24:37;;;;;;;0.00;0.00;;;-0.30;99.90;;;;;;5095020;28;20180;-62
2024/01/27 07:27:03;;;;;;;0.00;0.00;;;-0.30;99.90;;;;;;5094499;28;20265;-61
2024/01/27 07:29:29;;;;;;;0.00;0.00;;;-0.20;99.90;;;;;;5095209;28;20169;-62
2024/01/27 07:31:55;;;;;;;0.20;0.20;;;-0.20;99.90;;;;;;5095819;28;20732;-62
2024/01/27 07:34:20;;;;;;;0.00;0.00;;;-0.30;99.90;;;;;;5096518;28;20184;-61
2024/01/27 07:36:47;;;;;;;0.00;0.00;;;-0.30;99.90;;;;;;5094717;28;20283;-61
2024/01/27 07:39:13;;;;;;;0.00;0.00;;;-0.30;99.90;;;;;;5093075;28;20698;-60
2024/01/27 07:41:39;;;;;;;1.73;1.13;;;-0.20;99.90;;;;;;5093647;28;20168;-62
2024/01/27 07:44:13;;;;;;;0.20;0.10;;;-0.20;99.90;;;;;;5093544;28;20206;-61
2024/01/27 07:46:39;;;;;;;0.00;0.00;;;-0.20;99.90;;;;;;5093453;28;20175;-62
2024/01/27 07:49:08;;;;;;;0.10;0.10;;;-0.20;99.90;;;;;;5093582;28;20180;-62
2024/01/27 07:51:34;;;;;;;0.37;0.37;;;-0.20;99.90;;;;;;5093413;28;20562;-60
2024/01/27 07:54:00;;;;;;;0.20;0.20;;;-0.20;99.90;;;;;;5093516;28;20528;-61
2024/01/27 07:56:26;;;;;;;0.20;0.20;;;-0.20;99.90;;;;;;5091888;28;20176;-62
2024/01/27 07:58:51;;;;;;;0.00;0.00;;;-0.10;99.90;;;;;;5093284;28;20584;-61
2024/01/27 08:01:18;;;;;;;0.10;0.10;;;-0.10;99.90;;;;;;5093430;28;20267;-61
2024/01/27 08:03:44;;;;;;;1.27;0.67;;;0.00;99.90;;;;;;5093330;28;20180;-61
2024/01/27 08:06:16;;;;;;;0.20;0.15;;;0.20;99.90;;;;;;5093303;28;20575;-61
2024/01/27 08:08:46;;;;;;;0.22;0.22;;;0.30;99.90;;;;;;5092328;28;20224;-61
2024/01/27 08:11:15;;;;;;;0.32;0.32;;;0.40;99.90;;;;;;5090072;28;20212;-61
2024/01/27 08:13:41;;;;;;;0.00;0.00;;;0.60;99.90;;;;;;5093127;28;20199;-61
2024/01/27 08:16:09;;;;;;;0.32;0.32;;;0.70;99.90;;;;;;5093154;28;20218;-61
2024/01/27 08:18:36;;;;;;;0.30;0.30;;;0.80;99.90;;;;;;5092229;28;20797;-61
2024/01/27 08:21:03;;;;;;;0.00;0.00;;;0.90;99.90;;;;;;5092963;28;20168;-62
2024/01/27 08:23:28;;;;;;;0.00;0.00;;;1.10;99.90;;;;;;5091872;28;20180;-62
2024/01/27 08:25:54;;;;;;;0.00;0.00;;;1.20;99.90;;;;;;5092889;28;20180;-62
2024/01/27 08:28:19;;;;;;;0.10;0.10;;;1.30;99.90;;;;;;5092820;28;20176;-62
2024/01/27 08:30:45;;;;;;;0.00;0.00;;;1.50;99.90;;;;;;5092510;28;20211;-62
2024/01/27 08:33:10;;;;;;;0.28;0.28;;;1.70;99.90;;;;;;5092834;28;20176;-62
2024/01/27 08:35:36;;;;;;;0.00;0.00;;;1.90;99.90;;;;;;5092734;28;20329;-63
2024/01/27 08:38:03;;;;;;;0.00;0.00;;;2.20;99.90;;;;;;5092065;28;20176;-61
2024/01/27 08:40:29;;;;;;;0.30;0.30;;;2.40;99.90;;;;;;5092192;28;20289;-62
2024/01/27 08:42:54;;;;;;;0.10;0.10;;;2.60;99.90;;;;;;5092555;28;20200;-61
2024/01/27 08:45:20;;;;;;;0.00;0.00;;;2.80;99.90;;;;;;5092094;28;20198;-61
2024/01/27 08:47:45;;;;;;;0.00;0.00;;;2.80;99.90;;;;;;5091864;28;20705;-61
2024/01/27 08:50:11;;;;;;;0.00;0.00;;;3.00;99.90;;;;;;5091856;28;20199;-61
2024/01/27 08:52:36;;;;;;;0.13;0.13;;;3.10;99.90;;;;;;5092079;28;20184;-61
2024/01/27 08:55:02;;;;;;;0.00;0.00;;;3.30;99.90;;;;;;5090415;28;20180;-61
2024/01/27 08:57:28;;;;;;;0.00;0.00;;;3.40;99.90;;;;;;5120147;27;20238;-61
2024/01/27 08:59:53;;;;;;;0.10;0.10;;;3.50;99.90;;;;;;5092028;28;20176;-61
2024/01/27 09:02:19;;;;;;;0.00;0.00;;;3.60;99.90;;;;;;5091859;28;20212;-61
2024/01/27 09:04:44;;;;;;;0.52;0.52;;;3.70;99.90;;;;;;5090902;28;20187;-61
2024/01/27 09:07:11;;;;;;;0.30;0.30;;;3.80;99.90;;;;;;5092185;28;20180;-62
2024/01/27 09:09:38;;;;;;;1.38;0.70;;;4.00;99.90;;;;;;5091714;28;20540;-61
2024/01/27 09:12:03;;;;;;;0.10;0.10;;;4.10;99.90;;;;;;5091803;28;20200;-61
2024/01/27 09:14:29;;;;;;;0.00;0.00;;;4.20;99.90;;;;;;5091644;28;20177;-61
2024/01/27 09:16:54;;;;;;;0.00;0.00;;;4.30;99.90;;;;;;5091658;28;20264;-61
2024/01/27 09:19:20;;;;;;;0.00;0.00;;;4.50;99.90;;;;;;5090070;28;20226;-61
2024/01/27 09:21:45;;;;;;;0.00;0.00;;;4.70;99.90;;;;;;5091239;28;20191;-61
2024/01/27 09:24:11;;;;;;;0.00;0.00;;;4.80;99.90;;;;;;5091999;28;20172;-61
2024/01/27 09:26:36;;;;;;;0.00;0.00;;;4.90;99.90;;;;;;5090644;28;20650;-61
2024/01/27 09:29:02;;;;;;;0.00;0.00;;;5.00;99.90;;;;;;5091937;28;20186;-61
2024/01/27 09:31:28;;;;;;;0.10;0.00;;;5.10;99.90;;;;;;5090444;28;20208;-61
2024/01/27 09:33:53;;;;;;;0.00;0.00;;;5.10;99.90;;;;;;5091453;28;20237;-62
2024/01/27 09:36:20;;;;;;;0.00;0.00;;;5.10;99.90;;;;;;5090616;28;20173;-62
2024/01/27 09:38:46;;;;;;;0.00;0.00;;;5.10;99.90;;;;;;5091416;28;20202;-61
2024/01/27 09:41:13;;;;;;;0.00;0.00;;;5.20;99.90;;;;;;5091846;28;20187;-62
2024/01/27 09:43:44;;;;;;;0.00;0.00;;;5.30;99.90;;;;;;5091719;28;20175;-61
2024/01/27 09:46:17;;;;;;;0.00;0.00;;;5.40;99.90;;;;;;5091831;28;20188;-62
2024/01/27 09:48:43;;;;;;;0.00;0.00;;;5.50;99.90;;;;;;5090149;28;20180;-62
2024/01/27 09:51:10;;;;;;;0.10;0.10;;;5.60;99.90;;;;;;5091579;28;20298;-61
2024/01/27 09:53:36;;;;;;;0.00;0.00;;;5.60;99.90;;;;;;5090192;28;20623;-61
2024/01/27 09:56:06;;;;;;;0.00;0.00;;;5.70;99.90;;;;;;5091481;28;20308;-62
2024/01/27 09:58:31;;;;;;;0.00;0.00;;;5.80;99.90;;;;;;5091424;28;20218;-62
2024/01/27 10:00:59;;;;;;;0.43;0.43;;;5.80;99.90;;;;;;5091453;28;20535;-63
2024/01/27 10:03:26;;;;;;;0.00;0.00;;;5.90;99.90;;;;;;5091398;28;20176;-62
2024/01/27 10:05:56;;;;;;;0.00;0.00;;;5.90;99.90;;;;;;5091578;28;20234;-62
2024/01/27 10:08:23;;;;;;;0.00;0.00;;;5.90;99.90;;;;;;5091585;28;20187;-62
2024/01/27 10:10:54;;;;;;;0.00;0.00;;;5.90;99.90;;;;;;5091382;28;20542;-62
2024/01/27 10:13:26;;;;;;;0.00;0.00;;;6.00;99.90;;;;;;5091564;28;20164;-62
2024/01/27 10:16:12;;;;;;;0.38;0.38;;;6.10;99.90;;;;;;5091398;28;20183;-61
2024/01/27 10:18:37;;;;;;;0.00;0.00;;;6.10;99.90;;;;;;5091221;28;20565;-60
2024/01/27 10:21:14;;;;;;;0.00;0.00;;;6.10;99.90;;;;;;5090092;28;20179;-61
2024/01/27 10:23:40;;;;;;;0.00;0.00;;;6.20;99.90;;;;;;5091289;28;20179;-61
2024/01/27 10:26:08;;;;;;;0.00;0.00;;;6.40;99.90;;;;;;5091260;28;20180;-61
2024/01/27 10:28:33;;;;;;;0.00;0.00;;;6.70;99.90;;;;;;5091357;28;20177;-60
2024/01/27 10:31:14;;;;;;;0.43;0.43;;;7.20;99.90;;;;;;5091190;28;20203;-61
2024/01/27 10:33:50;;;;;;;0.00;0.00;;;7.70;99.90;;;;;;5091161;28;20187;-62
2024/01/27 10:36:16;;;;;;;0.00;0.00;;;8.00;99.90;;;;;;5091348;28;20199;-62
2024/01/27 10:38:41;;;;;;;0.00;0.00;;;8.30;99.90;;;;;;5091054;28;20184;-61
2024/01/27 10:41:10;;;;;;;0.00;0.00;;;8.30;99.90;;;;;;5091310;28;20184;-61
2024/01/27 10:43:36;;;;;;;0.00;0.00;;;8.20;99.90;;;;;;5091220;28;20172;-61
2024/01/27 10:46:08;;;;;;;0.08;0.08;;;8.10;99.90;;;;;;5092148;28;20229;-61
2024/01/27 10:48:36;;;;;;;0.00;0.00;;;8.00;99.90;;;;;;5094856;28;20172;-61
2024/01/27 10:51:10;;;;;;;0.45;0.45;;;7.90;99.90;;;;;;5094670;28;20224;-61
2024/01/27 10:53:37;;;;;;;0.08;0.08;;;7.80;99.90;;;;;;5094790;28;20176;-61
2024/01/27 10:56:08;;;;;;;0.00;0.00;;;7.70;99.90;;;;;;5094576;28;20172;-61
2024/01/27 10:58:40;;;;;;;0.10;0.10;;;7.60;99.90;;;;;;5094487;28;20183;-62
2024/01/27 11:01:10;;;;;;;0.00;0.00;;;7.60;99.90;;;;;;5094522;28;20538;-61
2024/01/27 11:03:38;;;;;;;0.00;0.00;;;7.60;99.90;;;;;;5094407;28;20226;-61
2024/01/27 11:06:05;;;;;;;0.00;0.00;;;7.70;99.90;;;;;;5094353;28;20179;-61
2024/01/27 11:08:32;;;;;;;0.00;0.00;;;7.60;99.90;;;;;;5094368;28;20180;-61
2024/01/27 11:10:59;;;;;;;0.00;0.00;;;7.70;99.90;;;;;;5092963;28;20218;-61
2024/01/27 11:13:26;;;;;;;0.00;0.00;;;7.70;99.90;;;;;;5094205;28;20176;-62
2024/01/27 11:15:55;;;;;;;0.00;0.00;;;7.70;99.90;;;;;;5094203;28;20558;-62
2024/01/27 11:18:21;;;;;;;0.00;0.00;;;7.80;99.90;;;;;;5094198;28;20176;-62
2024/01/27 11:20:47;;;;;;;0.00;0.00;;;8.00;99.90;;;;;;5094048;28;20184;-62
2024/01/27 11:23:16;;;;;;;0.00;0.00;;;8.10;99.90;;;;;;5094161;28;20514;-61
2024/01/27 11:25:42;;;;;;;0.00;0.00;;;8.20;99.90;;;;;;5093979;28;20270;-61
2024/01/27 11:28:16;;;;;;;0.00;0.00;;;8.40;99.90;;;;;;5094136;28;20259;-62
2024/01/27 11:30:48;;;;;;;0.00;0.00;;;8.50;99.90;;;;;;5094036;28;20200;-61
2024/01/27 11:33:13;;;;;;;0.00;0.00;;;8.60;99.90;;;;;;5093586;28;20536;-61
2024/01/27 11:35:39;;;;;;;0.10;0.10;;;8.60;99.90;;;;;;5093606;28;20172;-61
2024/01/27 11:38:05;;;;;;;0.00;0.00;;;8.60;99.90;;;;;;5093757;28;20214;-61
2024/01/27 11:40:30;;;;;;;0.00;0.00;;;8.60;99.90;;;;;;5093572;28;20230;-62
2024/01/27 11:43:01;;;;;;;0.00;0.00;;;8.70;99.90;;;;;;5093732;28;20176;-62
2024/01/27 11:45:30;;;;;;;0.00;0.00;;;8.80;99.90;;;;;;5093530;28;20263;-62
2024/01/27 11:47:56;;;;;;;0.70;0.57;;;9.00;99.90;;;;;;5093045;28;20223;-60
2024/01/27 11:50:22;;;;;;;0.00;0.00;;;9.00;99.90;;;;;;5092175;28;20211;-60
2024/01/27 11:52:48;;;;;;;0.00;0.00;;;9.10;99.90;;;;;;5093537;28;20560;-61
2024/01/27 11:55:15;;;;;;;0.22;0.22;;;9.20;99.90;;;;;;5092800;28;20922;-61
2024/01/27 11:57:42;;;;;;;0.10;0.10;;;9.10;99.60;;;;;;5092885;28;20187;-62
2024/01/27 12:00:09;;;;;;;0.10;0.10;;;9.10;99.50;;;;;;5092837;28;20218;-61
2024/01/27 12:02:35;;;;;;;0.00;0.00;;;9.00;99.50;;;;;;5093096;28;20183;-61
2024/01/27 12:05:01;;;;;;;0.00;0.00;;;9.00;99.90;;;;;;5093280;28;20185;-61
2024/01/27 12:07:27;;;;;;;0.00;0.00;;;9.00;99.90;;;;;;5092397;28;20176;-61
2024/01/27 12:09:52;;;;;;;0.00;0.00;;;9.00;99.90;;;;;;5092253;28;20191;-61
2024/01/27 12:12:18;;;;;;;0.00;0.00;;;9.10;99.90;;;;;;5092845;28;20243;-62
2024/01/27 12:14:48;;;;;;;0.32;0.32;;;9.00;99.70;;;;;;5092224;28;20164;-65
2024/01/27 12:17:15;;;;;;;0.00;0.00;;;9.00;99.90;;;;;;5090937;28;20185;-68
2024/01/27 12:19:54;;;;;;;0.00;0.00;;;9.10;99.90;;;;;;5091932;28;20180;-69
2024/01/27 12:22:27;;;;;;;0.00;0.00;;;9.10;99.80;;;;;;5091627;28;20202;-66
2024/01/27 12:25:07;;;;;;;0.00;0.00;;;9.20;99.80;;;;;;5092199;28;20271;-67
2024/01/27 12:27:33;;;;;;;0.00;0.00;;;9.30;98.90;;;;;;5092066;28;20168;-67
2024/01/27 12:30:00;;;;;;;0.00;0.00;;;9.30;98.90;;;;;;5092281;28;20176;-66
2024/01/27 12:32:26;;;;;;;0.00;0.00;;;9.30;99.20;;;;;;5092140;28;20184;-65
2024/01/27 12:34:51;;;;;;;0.00;0.00;;;9.30;98.90;;;;;;5092064;28;20180;-66
2024/01/27 12:37:17;;;;;;;0.00;0.00;;;9.30;99.10;;;;;;5092145;28;20171;-66
2024/01/27 12:39:46;;;;;;;0.00;0.00;;;9.30;99.40;;;;;;5090219;28;20222;-66
2024/01/27 12:42:12;;;;;;;0.00;0.00;;;9.30;99.50;;;;;;5092063;28;20173;-66
2024/01/27 12:44:38;;;;;;;0.00;0.00;;;9.40;99.60;;;;;;5091940;28;20180;-68
2024/01/27 12:47:04;;;;;;;0.00;0.00;;;9.50;99.20;;;;;;5091637;28;20746;-67
2024/01/27 12:49:30;;;;;;;0.00;0.00;;;9.40;98.60;;;;;;5091954;28;20181;-69
2024/01/27 12:51:56;;;;;;;0.00;0.00;;;9.30;98.60;;;;;;5090078;28;20679;-68